Ingeniero Jacobacci, Argentina
Current Conditions -  °F | °C
As of 10:00 AM on Saturday 25 Oct 2014 (Local Time) from SAZS Reporting Station
Clear Clear  
Wind Chill: 54°   Ceiling: Unl
Heat Index: 54°   Visibility: 6mi
Dew Point: 32°   Wind: 0mph
Humidity: 44%   Direction: NA
Pressure: 29.97"   Gusts: NA
Location:  41.43°S, 69.47°W
Report Text: SAZS 251300Z 00000KT CAVOK 12/00 Q1015
Loading
Personal Weather Stations






























Interactive Weather Map
Tropical Storm Tracking
New forecast layout! Learn more

10-Day Weather Forecast

Advertisements
Track Severe Weather on mobile